sensor_id;sensor_type;location;lat;lon;timestamp;pressure;altitude;pressure_sealevel;temperature;humidity
38225;BME280;24025;48.138;11.428;2023-03-26T00:02:18;95080.47;;;7.22;66.46
38225;BME280;24025;48.138;11.428;2023-03-26T00:04:49;95077.06;;;7.22;66.34
38225;BME280;24025;48.138;11.428;2023-03-26T00:07:23;95081.19;;;7.19;66.73
38225;BME280;24025;48.138;11.428;2023-03-26T00:09:55;95077.28;;;7.13;66.64
38225;BME280;24025;48.138;11.428;2023-03-26T00:12:28;95079.88;;;7.09;67.02
38225;BME280;24025;48.138;11.428;2023-03-26T00:14:59;95089.22;;;7.03;67.05
38225;BME280;24025;48.138;11.428;2023-03-26T00:17:31;95072.91;;;7.01;67.10
38225;BME280;24025;48.138;11.428;2023-03-26T00:20:03;95074.72;;;6.97;67.45
38225;BME280;24025;48.138;11.428;2023-03-26T00:22:35;95078.56;;;7.00;67.36
38225;BME280;24025;48.138;11.428;2023-03-26T00:25:07;95082.66;;;6.97;67.35
38225;BME280;24025;48.138;11.428;2023-03-26T00:27:39;95086.44;;;6.96;67.57
38225;BME280;24025;48.138;11.428;2023-03-26T00:30:11;95081.47;;;6.95;67.45
38225;BME280;24025;48.138;11.428;2023-03-26T00:32:43;95083.78;;;6.96;67.67
38225;BME280;24025;48.138;11.428;2023-03-26T00:35:24;95083.31;;;6.91;67.65
38225;BME280;24025;48.138;11.428;2023-03-26T00:37:55;95077.66;;;6.92;67.68
38225;BME280;24025;48.138;11.428;2023-03-26T00:40:28;95080.56;;;6.87;67.69
38225;BME280;24025;48.138;11.428;2023-03-26T00:43:00;95076.81;;;6.88;67.88
38225;BME280;24025;48.138;11.428;2023-03-26T00:45:32;95084.44;;;6.90;67.72
38225;BME280;24025;48.138;11.428;2023-03-26T00:48:04;95068.53;;;6.90;67.59
38225;BME280;24025;48.138;11.428;2023-03-26T00:50:36;95065.59;;;6.75;68.22
38225;BME280;24025;48.138;11.428;2023-03-26T00:53:08;95064.22;;;6.81;68.14
38225;BME280;24025;48.138;11.428;2023-03-26T00:55:41;95072.91;;;6.82;68.15
38225;BME280;24025;48.138;11.428;2023-03-26T00:58:14;95069.78;;;6.76;68.25
38225;BME280;24025;48.138;11.428;2023-03-26T01:00:55;95070.13;;;6.75;68.36
38225;BME280;24025;48.138;11.428;2023-03-26T01:03:29;95063.66;;;6.72;68.55
38225;BME280;24025;48.138;11.428;2023-03-26T01:06:10;95074.16;;;6.69;68.68
38225;BME280;24025;48.138;11.428;2023-03-26T01:08:45;95074.50;;;6.67;68.75
38225;BME280;24025;48.138;11.428;2023-03-26T01:11:26;95065.09;;;6.70;68.92
38225;BME280;24025;48.138;11.428;2023-03-26T01:16:44;95073.38;;;6.68;68.86
38225;BME280;24025;48.138;11.428;2023-03-26T01:21:56;95079.41;;;6.65;69.19
38225;BME280;24025;48.138;11.428;2023-03-26T01:24:28;95071.09;;;6.67;69.19
38225;BME280;24025;48.138;11.428;2023-03-26T01:29:43;95060.75;;;6.62;69.42
38225;BME280;24025;48.138;11.428;2023-03-26T01:32:20;95057.09;;;6.66;69.48
38225;BME280;24025;48.138;11.428;2023-03-26T01:40:48;95049.91;;;6.67;69.36
38225;BME280;24025;48.138;11.428;2023-03-26T01:43:48;95050.59;;;6.64;69.38
38225;BME280;24025;48.138;11.428;2023-03-26T01:46:22;95042.72;;;6.67;69.32
38225;BME280;24025;48.138;11.428;2023-03-26T01:48:56;95048.03;;;6.67;69.27
38225;BME280;24025;48.138;11.428;2023-03-26T01:51:30;95055.59;;;6.69;69.44
38225;BME280;24025;48.138;11.428;2023-03-26T01:54:03;95047.97;;;6.64;69.96
38225;BME280;24025;48.138;11.428;2023-03-26T01:56:47;95049.13;;;6.66;69.93
38225;BME280;24025;48.138;11.428;2023-03-26T02:02:13;95033.78;;;6.75;69.68
38225;BME280;24025;48.138;11.428;2023-03-26T02:05:06;95033.78;;;6.75;69.57
38225;BME280;24025;48.138;11.428;2023-03-26T02:07:50;95025.50;;;6.77;69.64
38225;BME280;24025;48.138;11.428;2023-03-26T02:10:29;95021.72;;;6.78;69.42
38225;BME280;24025;48.138;11.428;2023-03-26T02:13:00;95024.72;;;6.76;69.64
38225;BME280;24025;48.138;11.428;2023-03-26T02:15:33;95022.56;;;6.82;69.36
38225;BME280;24025;48.138;11.428;2023-03-26T02:18:04;95017.75;;;6.68;69.49
38225;BME280;24025;48.138;11.428;2023-03-26T02:20:36;95019.38;;;6.73;69.67
38225;BME280;24025;48.138;11.428;2023-03-26T02:23:08;95006.94;;;6.77;69.57
38225;BME280;24025;48.138;11.428;2023-03-26T02:25:40;95005.69;;;6.71;69.83
38225;BME280;24025;48.138;11.428;2023-03-26T02:28:14;95007.56;;;6.70;69.60
38225;BME280;24025;48.138;11.428;2023-03-26T02:30:48;95002.47;;;6.62;70.19
38225;BME280;24025;48.138;11.428;2023-03-26T02:33:19;95009.41;;;6.66;69.71
38225;BME280;24025;48.138;11.428;2023-03-26T02:35:51;95006.81;;;6.70;69.93
38225;BME280;24025;48.138;11.428;2023-03-26T02:38:24;95003.38;;;6.69;69.86
38225;BME280;24025;48.138;11.428;2023-03-26T02:40:56;95003.88;;;6.75;70.10
38225;BME280;24025;48.138;11.428;2023-03-26T02:43:28;94996.00;;;6.78;69.85
38225;BME280;24025;48.138;11.428;2023-03-26T02:46:00;94996.44;;;6.80;69.55
38225;BME280;24025;48.138;11.428;2023-03-26T02:48:32;94983.19;;;6.80;69.92
38225;BME280;24025;48.138;11.428;2023-03-26T02:51:05;94986.25;;;6.82;69.83
38225;BME280;24025;48.138;11.428;2023-03-26T02:53:37;94984.34;;;6.83;69.96
38225;BME280;24025;48.138;11.428;2023-03-26T02:56:09;94982.53;;;6.87;69.81
38225;BME280;24025;48.138;11.428;2023-03-26T02:58:42;94984.81;;;6.89;69.49
38225;BME280;24025;48.138;11.428;2023-03-26T03:01:17;94967.38;;;6.88;69.89
38225;BME280;24025;48.138;11.428;2023-03-26T03:03:49;94974.13;;;6.81;70.06
38225;BME280;24025;48.138;11.428;2023-03-26T03:06:20;94968.06;;;6.81;70.43
38225;BME280;24025;48.138;11.428;2023-03-26T03:08:52;94950.94;;;6.78;70.42
38225;BME280;24025;48.138;11.428;2023-03-26T03:11:28;94943.84;;;6.82;70.39
38225;BME280;24025;48.138;11.428;2023-03-26T03:14:00;94949.56;;;6.85;70.47
38225;BME280;24025;48.138;11.428;2023-03-26T03:16:32;94937.84;;;6.86;70.14
38225;BME280;24025;48.138;11.428;2023-03-26T03:19:03;94936.31;;;6.85;70.19
38225;BME280;24025;48.138;11.428;2023-03-26T03:21:36;94934.06;;;6.87;70.16
38225;BME280;24025;48.138;11.428;2023-03-26T03:24:08;94919.34;;;6.89;70.62
38225;BME280;24025;48.138;11.428;2023-03-26T03:26:40;94917.47;;;6.90;70.28
38225;BME280;24025;48.138;11.428;2023-03-26T03:29:12;94921.66;;;6.91;70.62
38225;BME280;24025;48.138;11.428;2023-03-26T03:31:44;94917.00;;;6.84;70.50
38225;BME280;24025;48.138;11.428;2023-03-26T03:34:15;94911.69;;;6.84;70.77
38225;BME280;24025;48.138;11.428;2023-03-26T03:36:47;94918.91;;;6.87;70.35
38225;BME280;24025;48.138;11.428;2023-03-26T03:39:20;94912.97;;;6.94;70.33
38225;BME280;24025;48.138;11.428;2023-03-26T03:41:52;94910.38;;;6.97;70.44
38225;BME280;24025;48.138;11.428;2023-03-26T03:44:23;94913.03;;;6.97;70.58
38225;BME280;24025;48.138;11.428;2023-03-26T03:46:55;94907.81;;;7.01;70.19
38225;BME280;24025;48.138;11.428;2023-03-26T03:49:27;94905.56;;;7.03;70.36
38225;BME280;24025;48.138;11.428;2023-03-26T03:51:58;94910.75;;;6.96;70.53
38225;BME280;24025;48.138;11.428;2023-03-26T03:54:30;94908.50;;;6.98;70.61
38225;BME280;24025;48.138;11.428;2023-03-26T03:57:01;94910.75;;;6.96;70.95
38225;BME280;24025;48.138;11.428;2023-03-26T03:59:33;94907.31;;;6.95;70.59
38225;BME280;24025;48.138;11.428;2023-03-26T04:02:05;94896.44;;;7.00;70.95
38225;BME280;24025;48.138;11.428;2023-03-26T04:04:36;94897.66;;;7.06;70.68
38225;BME280;24025;48.138;11.428;2023-03-26T04:07:08;94888.53;;;7.04;71.23
38225;BME280;24025;48.138;11.428;2023-03-26T04:09:39;94879.09;;;7.06;70.99
38225;BME280;24025;48.138;11.428;2023-03-26T04:12:11;94877.66;;;7.09;71.08
38225;BME280;24025;48.138;11.428;2023-03-26T04:14:42;94873.09;;;7.09;71.13
38225;BME280;24025;48.138;11.428;2023-03-26T04:17:14;94879.06;;;7.03;71.70
38225;BME280;24025;48.138;11.428;2023-03-26T04:19:46;94868.44;;;7.03;71.44
38225;BME280;24025;48.138;11.428;2023-03-26T04:22:18;94869.97;;;7.04;71.30
38225;BME280;24025;48.138;11.428;2023-03-26T04:24:50;94869.69;;;7.09;71.36
38225;BME280;24025;48.138;11.428;2023-03-26T04:27:27;94867.72;;;7.06;71.38
38225;BME280;24025;48.138;11.428;2023-03-26T04:30:03;94866.56;;;7.03;71.72
38225;BME280;24025;48.138;11.428;2023-03-26T04:32:36;94864.75;;;7.07;71.52
38225;BME280;24025;48.138;11.428;2023-03-26T04:35:12;94862.09;;;7.07;71.84
38225;BME280;24025;48.138;11.428;2023-03-26T04:37:45;94863.19;;;7.06;72.04
38225;BME280;24025;48.138;11.428;2023-03-26T04:40:19;94856.84;;;7.11;71.48
38225;BME280;24025;48.138;11.428;2023-03-26T04:42:52;94843.59;;;7.11;71.85
38225;BME280;24025;48.138;11.428;2023-03-26T04:45:24;94841.75;;;7.15;71.90
38225;BME280;24025;48.138;11.428;2023-03-26T04:47:57;94837.22;;;7.16;71.57
38225;BME280;24025;48.138;11.428;2023-03-26T04:50:28;94834.56;;;7.16;71.63
38225;BME280;24025;48.138;11.428;2023-03-26T04:53:00;94841.81;;;7.19;71.47
38225;BME280;24025;48.138;11.428;2023-03-26T04:55:40;94836.91;;;7.21;70.98
38225;BME280;24025;48.138;11.428;2023-03-26T04:58:13;94829.34;;;7.23;70.71
38225;BME280;24025;48.138;11.428;2023-03-26T05:00:45;94829.00;;;7.24;70.04
38225;BME280;24025;48.138;11.428;2023-03-26T05:03:17;94824.53;;;7.28;69.90
38225;BME280;24025;48.138;11.428;2023-03-26T05:05:51;94816.53;;;7.25;69.68
38225;BME280;24025;48.138;11.428;2023-03-26T05:08:23;94818.81;;;7.26;70.49
38225;BME280;24025;48.138;11.428;2023-03-26T05:10:55;94818.09;;;7.29;70.54
38225;BME280;24025;48.138;11.428;2023-03-26T05:13:27;94809.00;;;7.30;70.08
38225;BME280;24025;48.138;11.428;2023-03-26T05:15:58;94801.78;;;7.27;70.06
38225;BME280;24025;48.138;11.428;2023-03-26T05:18:30;94799.91;;;7.28;69.94
38225;BME280;24025;48.138;11.428;2023-03-26T05:21:02;94811.66;;;7.30;70.59
38225;BME280;24025;48.138;11.428;2023-03-26T05:23:34;94801.44;;;7.32;70.32
38225;BME280;24025;48.138;11.428;2023-03-26T05:26:05;94810.63;;;7.38;70.34
38225;BME280;24025;48.138;11.428;2023-03-26T05:28:38;94806.81;;;7.36;68.98
38225;BME280;24025;48.138;11.428;2023-03-26T05:31:09;94815.63;;;7.44;69.39
38225;BME280;24025;48.138;11.428;2023-03-26T05:33:41;94807.31;;;7.45;69.97
38225;BME280;24025;48.138;11.428;2023-03-26T05:36:12;94801.69;;;7.50;69.53
38225;BME280;24025;48.138;11.428;2023-03-26T05:38:45;94797.50;;;7.49;70.30
38225;BME280;24025;48.138;11.428;2023-03-26T05:41:19;94796.84;;;7.56;70.37
38225;BME280;24025;48.138;11.428;2023-03-26T05:43:51;94791.22;;;7.61;70.03
38225;BME280;24025;48.138;11.428;2023-03-26T05:46:22;94787.81;;;7.60;70.65
38225;BME280;24025;48.138;11.428;2023-03-26T05:48:54;94778.00;;;7.64;70.05
38225;BME280;24025;48.138;11.428;2023-03-26T05:51:26;94776.47;;;7.63;70.25
38225;BME280;24025;48.138;11.428;2023-03-26T05:53:57;94766.66;;;7.67;69.37
38225;BME280;24025;48.138;11.428;2023-03-26T05:56:29;94760.28;;;7.72;68.94
38225;BME280;24025;48.138;11.428;2023-03-26T05:59:01;94749.69;;;7.76;69.60
38225;BME280;24025;48.138;11.428;2023-03-26T06:01:32;94748.94;;;7.75;69.51
38225;BME280;24025;48.138;11.428;2023-03-26T06:04:04;94745.97;;;7.80;68.93
38225;BME280;24025;48.138;11.428;2023-03-26T06:06:36;94743.69;;;7.82;68.87
38225;BME280;24025;48.138;11.428;2023-03-26T06:09:07;94739.59;;;7.88;68.56
38225;BME280;24025;48.138;11.428;2023-03-26T06:11:39;94741.13;;;7.89;68.40
38225;BME280;24025;48.138;11.428;2023-03-26T06:14:11;94738.19;;;7.98;68.16
38225;BME280;24025;48.138;11.428;2023-03-26T06:16:42;94746.56;;;8.04;66.86
38225;BME280;24025;48.138;11.428;2023-03-26T06:19:14;94745.03;;;8.03;66.10
38225;BME280;24025;48.138;11.428;2023-03-26T06:21:46;94746.16;;;8.02;64.46
38225;BME280;24025;48.138;11.428;2023-03-26T06:24:17;94735.53;;;8.02;64.02
38225;BME280;24025;48.138;11.428;2023-03-26T06:26:50;94730.34;;;8.12;63.18
38225;BME280;24025;48.138;11.428;2023-03-26T06:29:23;94729.63;;;8.15;62.32
38225;BME280;24025;48.138;11.428;2023-03-26T06:31:54;94738.28;;;8.12;61.45
38225;BME280;24025;48.138;11.428;2023-03-26T06:34:33;94739.88;;;8.17;61.33
38225;BME280;24025;48.138;11.428;2023-03-26T06:37:05;94736.53;;;8.23;61.21
38225;BME280;24025;48.138;11.428;2023-03-26T06:39:37;94728.94;;;8.22;60.82
38225;BME280;24025;48.138;11.428;2023-03-26T06:42:08;94729.72;;;8.30;61.87
38225;BME280;24025;48.138;11.428;2023-03-26T06:44:40;94733.50;;;8.29;62.66
38225;BME280;24025;48.138;11.428;2023-03-26T06:47:11;94734.38;;;8.36;62.65
38225;BME280;24025;48.138;11.428;2023-03-26T06:49:43;94727.22;;;8.44;63.74
38225;BME280;24025;48.138;11.428;2023-03-26T06:52:15;94733.69;;;8.43;62.74
38225;BME280;24025;48.138;11.428;2023-03-26T06:54:47;94729.50;;;8.42;62.60
38225;BME280;24025;48.138;11.428;2023-03-26T06:57:18;94726.09;;;8.41;62.78
38225;BME280;24025;48.138;11.428;2023-03-26T06:59:51;94724.56;;;8.40;64.64
38225;BME280;24025;48.138;11.428;2023-03-26T07:02:22;94720.78;;;8.41;65.06
38225;BME280;24025;48.138;11.428;2023-03-26T07:04:54;94723.06;;;8.43;65.67
38225;BME280;24025;48.138;11.428;2023-03-26T07:07:26;94713.19;;;8.47;66.48
38225;BME280;24025;48.138;11.428;2023-03-26T07:09:57;94709.06;;;8.49;67.60
38225;BME280;24025;48.138;11.428;2023-03-26T07:12:28;94707.94;;;8.50;67.73
38225;BME280;24025;48.138;11.428;2023-03-26T07:15:02;94704.50;;;8.50;69.45
38225;BME280;24025;48.138;11.428;2023-03-26T07:17:33;94703.72;;;8.46;70.23
38225;BME280;24025;48.138;11.428;2023-03-26T07:20:06;94695.97;;;8.30;72.90
38225;BME280;24025;48.138;11.428;2023-03-26T07:22:38;94698.28;;;8.32;73.47
38225;BME280;24025;48.138;11.428;2023-03-26T07:25:12;94691.06;;;8.32;74.16
38225;BME280;24025;48.138;11.428;2023-03-26T07:28:09;94670.59;;;8.33;74.06
38225;BME280;24025;48.138;11.428;2023-03-26T07:30:51;94669.41;;;8.30;73.94
38225;BME280;24025;48.138;11.428;2023-03-26T07:33:36;94656.16;;;8.34;74.21
38225;BME280;24025;48.138;11.428;2023-03-26T07:39:17;94644.44;;;8.35;76.84
38225;BME280;24025;48.138;11.428;2023-03-26T07:47:38;94612.63;;;8.45;78.53
38225;BME280;24025;48.138;11.428;2023-03-26T07:50:16;94606.22;;;8.54;77.96
38225;BME280;24025;48.138;11.428;2023-03-26T07:52:49;94599.41;;;8.56;79.33
38225;BME280;24025;48.138;11.428;2023-03-26T07:55:21;94596.78;;;8.60;80.14
38225;BME280;24025;48.138;11.428;2023-03-26T07:57:56;94585.72;;;8.50;80.56
38225;BME280;24025;48.138;11.428;2023-03-26T08:00:39;94581.16;;;8.55;79.24
38225;BME280;24025;48.138;11.428;2023-03-26T08:06:33;94575.16;;;8.65;80.33
38225;BME280;24025;48.138;11.428;2023-03-26T08:11:57;94553.91;;;8.72;79.34
38225;BME280;24025;48.138;11.428;2023-03-26T08:17:32;94569.53;;;8.80;79.65
38225;BME280;24025;48.138;11.428;2023-03-26T08:22:54;94553.59;;;8.91;79.10
38225;BME280;24025;48.138;11.428;2023-03-26T08:28:25;94554.06;;;9.15;77.89
38225;BME280;24025;48.138;11.428;2023-03-26T08:31:00;94541.91;;;9.10;74.95
38225;BME280;24025;48.138;11.428;2023-03-26T08:33:33;94538.09;;;9.18;75.73
38225;BME280;24025;48.138;11.428;2023-03-26T08:36:08;94544.59;;;9.28;74.70
38225;BME280;24025;48.138;11.428;2023-03-26T08:38:40;94547.66;;;9.37;74.60
38225;BME280;24025;48.138;11.428;2023-03-26T08:47:09;94543.84;;;9.42;72.69
38225;BME280;24025;48.138;11.428;2023-03-26T09:01:27;94546.41;;;8.99;72.46
38225;BME280;24025;48.138;11.428;2023-03-26T09:04:28;94543.38;;;8.93;72.79
38225;BME280;24025;48.138;11.428;2023-03-26T09:21:42;94511.81;;;8.77;78.25
38225;BME280;24025;48.138;11.428;2023-03-26T09:36:02;94511.00;;;8.70;78.55
38225;BME280;24025;48.138;11.428;2023-03-26T09:41:51;94531.88;;;8.61;81.16
38225;BME280;24025;48.138;11.428;2023-03-26T09:44:43;94523.47;;;8.55;80.39
38225;BME280;24025;48.138;11.428;2023-03-26T09:50:34;94498.50;;;8.67;82.40
38225;BME280;24025;48.138;11.428;2023-03-26T09:53:23;94491.66;;;8.66;82.23
38225;BME280;24025;48.138;11.428;2023-03-26T10:10:53;94457.91;;;8.91;79.24
38225;BME280;24025;48.138;11.428;2023-03-26T10:13:57;94454.09;;;8.89;79.18
38225;BME280;24025;48.138;11.428;2023-03-26T10:16:38;94468.19;;;8.93;80.11
38225;BME280;24025;48.138;11.428;2023-03-26T10:19:36;94466.28;;;9.04;79.29
38225;BME280;24025;48.138;11.428;2023-03-26T10:25:31;94468.97;;;9.11;79.37
38225;BME280;24025;48.138;11.428;2023-03-26T10:34:19;94492.75;;;8.58;80.60
38225;BME280;24025;48.138;11.428;2023-03-26T10:37:08;94498.47;;;8.63;82.47
38225;BME280;24025;48.138;11.428;2023-03-26T10:42:47;94496.94;;;8.62;82.53
38225;BME280;24025;48.138;11.428;2023-03-26T10:45:25;94515.09;;;8.42;80.66
38225;BME280;24025;48.138;11.428;2023-03-26T10:53:46;94488.03;;;8.26;81.98
38225;BME280;24025;48.138;11.428;2023-03-26T10:58:53;94467.94;;;8.29;82.86
38225;BME280;24025;48.138;11.428;2023-03-26T11:06:57;94443.75;;;8.44;82.64
38225;BME280;24025;48.138;11.428;2023-03-26T11:09:43;94453.50;;;8.30;82.89
38225;BME280;24025;48.138;11.428;2023-03-26T11:12:28;94442.28;;;8.65;81.95
38225;BME280;24025;48.138;11.428;2023-03-26T11:15:38;94442.34;;;8.90;82.00
38225;BME280;24025;48.138;11.428;2023-03-26T11:18:24;94444.25;;;8.86;82.29
38225;BME280;24025;48.138;11.428;2023-03-26T11:21:12;94462.09;;;8.92;81.67
38225;BME280;24025;48.138;11.428;2023-03-26T11:27:11;94441.16;;;8.69;80.28
38225;BME280;24025;48.138;11.428;2023-03-26T11:32:44;94449.13;;;8.69;80.46
38225;BME280;24025;48.138;11.428;2023-03-26T11:38:22;94437.16;;;8.20;80.98
38225;BME280;24025;48.138;11.428;2023-03-26T11:40:59;94436.75;;;8.08;82.89
38225;BME280;24025;48.138;11.428;2023-03-26T11:43:34;94443.16;;;8.00;83.07
38225;BME280;24025;48.138;11.428;2023-03-26T11:46:11;94428.03;;;8.11;83.92
38225;BME280;24025;48.138;11.428;2023-03-26T11:48:53;94432.19;;;8.08;83.89
38225;BME280;24025;48.138;11.428;2023-03-26T11:51:33;94431.84;;;8.20;85.19
38225;BME280;24025;48.138;11.428;2023-03-26T11:54:06;94433.78;;;8.23;84.64
38225;BME280;24025;48.138;11.428;2023-03-26T12:02:26;94400.75;;;8.21;85.16
38225;BME280;24025;48.138;11.428;2023-03-26T12:07:51;94411.50;;;8.57;84.75
38225;BME280;24025;48.138;11.428;2023-03-26T12:10:33;94408.94;;;9.03;83.54
38225;BME280;24025;48.138;11.428;2023-03-26T12:16:00;94402.44;;;9.36;80.79
38225;BME280;24025;48.138;11.428;2023-03-26T12:18:35;94410.78;;;9.74;79.77
38225;BME280;24025;48.138;11.428;2023-03-26T12:23:57;94388.34;;;9.68;78.84
38225;BME280;24025;48.138;11.428;2023-03-26T12:26:40;94389.84;;;9.90;78.47
38225;BME280;24025;48.138;11.428;2023-03-26T12:29:16;94400.81;;;10.03;76.94
38225;BME280;24025;48.138;11.428;2023-03-26T12:34:37;94383.44;;;9.59;79.31
38225;BME280;24025;48.138;11.428;2023-03-26T12:37:36;94379.28;;;9.54;78.40
38225;BME280;24025;48.138;11.428;2023-03-26T12:40:30;94390.69;;;9.41;78.01
38225;BME280;24025;48.138;11.428;2023-03-26T12:43:05;94399.00;;;9.53;77.39
38225;BME280;24025;48.138;11.428;2023-03-26T12:49:16;94390.66;;;9.58;76.40
38225;BME280;24025;48.138;11.428;2023-03-26T12:54:36;94388.72;;;9.62;77.66
38225;BME280;24025;48.138;11.428;2023-03-26T12:57:22;94388.75;;;9.52;76.95
38225;BME280;24025;48.138;11.428;2023-03-26T13:00:24;94381.91;;;9.51;75.53
38225;BME280;24025;48.138;11.428;2023-03-26T13:08:51;94384.59;;;9.51;75.40
38225;BME280;24025;48.138;11.428;2023-03-26T13:11:49;94376.22;;;9.52;75.90
38225;BME280;24025;48.138;11.428;2023-03-26T13:21:00;94365.63;;;9.31;75.50
38225;BME280;24025;48.138;11.428;2023-03-26T13:26:25;94371.31;;;9.40;76.02
38225;BME280;24025;48.138;11.428;2023-03-26T13:29:13;94363.31;;;9.47;75.59
38225;BME280;24025;48.138;11.428;2023-03-26T13:37:40;94364.84;;;9.30;74.89
38225;BME280;24025;48.138;11.428;2023-03-26T13:48:52;94349.66;;;9.38;74.89
38225;BME280;24025;48.138;11.428;2023-03-26T13:57:37;94331.38;;;9.44;72.92
38225;BME280;24025;48.138;11.428;2023-03-26T14:00:14;94325.25;;;9.54;73.22
38225;BME280;24025;48.138;11.428;2023-03-26T14:02:54;94304.78;;;9.44;72.46
38225;BME280;24025;48.138;11.428;2023-03-26T14:05:38;94346.63;;;9.29;72.99
38225;BME280;24025;48.138;11.428;2023-03-26T14:08:25;94350.44;;;8.78;69.25
38225;BME280;24025;48.138;11.428;2023-03-26T14:11:15;94322.69;;;8.40;68.67
38225;BME280;24025;48.138;11.428;2023-03-26T14:16:35;94320.25;;;7.88;70.50
38225;BME280;24025;48.138;11.428;2023-03-26T14:22:41;94311.22;;;8.07;69.76
38225;BME280;24025;48.138;11.428;2023-03-26T14:36:57;94295.34;;;8.32;69.08
38225;BME280;24025;48.138;11.428;2023-03-26T14:42:27;94291.97;;;8.60;67.98
38225;BME280;24025;48.138;11.428;2023-03-26T14:53:53;94280.53;;;8.99;66.48
38225;BME280;24025;48.138;11.428;2023-03-26T15:10:53;94272.81;;;9.51;67.33
38225;BME280;24025;48.138;11.428;2023-03-26T15:17:11;94261.44;;;9.47;69.16
38225;BME280;24025;48.138;11.428;2023-03-26T15:26:17;94257.28;;;9.42;71.20
38225;BME280;24025;48.138;11.428;2023-03-26T15:32:43;94244.38;;;9.37;70.89
38225;BME280;24025;48.138;11.428;2023-03-26T15:38:26;94244.03;;;9.24;72.50
38225;BME280;24025;48.138;11.428;2023-03-26T15:47:14;94258.91;;;8.93;69.35
38225;BME280;24025;48.138;11.428;2023-03-26T15:50:14;94274.88;;;8.75;61.77
38225;BME280;24025;48.138;11.428;2023-03-26T15:58:29;94235.38;;;8.28;64.48
38225;BME280;24025;48.138;11.428;2023-03-26T16:06:53;94268.34;;;8.12;64.13
38225;BME280;24025;48.138;11.428;2023-03-26T16:20:44;94249.84;;;8.41;66.11
38225;BME280;24025;48.138;11.428;2023-03-26T16:36:43;94240.28;;;8.08;67.80
38225;BME280;24025;48.138;11.428;2023-03-26T16:39:36;94224.38;;;8.18;67.66
38225;BME280;24025;48.138;11.428;2023-03-26T16:48:21;94215.97;;;7.84;69.70
38225;BME280;24025;48.138;11.428;2023-03-26T16:51:02;94225.09;;;7.90;69.43
38225;BME280;24025;48.138;11.428;2023-03-26T16:56:34;94225.47;;;7.78;70.10
38225;BME280;24025;48.138;11.428;2023-03-26T17:11:17;94223.56;;;7.89;68.58
38225;BME280;24025;48.138;11.428;2023-03-26T17:14:29;94225.09;;;7.90;68.07
38225;BME280;24025;48.138;11.428;2023-03-26T17:22:56;94223.56;;;7.86;68.26
38225;BME280;24025;48.138;11.428;2023-03-26T17:25:36;94225.06;;;7.76;68.64
38225;BME280;24025;48.138;11.428;2023-03-26T17:30:59;94244.38;;;7.73;69.56
38225;BME280;24025;48.138;11.428;2023-03-26T17:33:35;94246.66;;;7.71;69.40
38225;BME280;24025;48.138;11.428;2023-03-26T17:38:58;94270.09;;;7.58;70.31
38225;BME280;24025;48.138;11.428;2023-03-26T17:41:52;94284.50;;;7.57;71.01
38225;BME280;24025;48.138;11.428;2023-03-26T17:44:43;94297.34;;;7.48;72.19
38225;BME280;24025;48.138;11.428;2023-03-26T17:53:30;94336.63;;;7.28;74.77
38225;BME280;24025;48.138;11.428;2023-03-26T17:56:05;94335.38;;;7.08;77.44
38225;BME280;24025;48.138;11.428;2023-03-26T17:58:46;94310.97;;;6.81;76.54
38225;BME280;24025;48.138;11.428;2023-03-26T18:01:28;94310.53;;;6.75;76.94
38225;BME280;24025;48.138;11.428;2023-03-26T18:04:05;94299.81;;;6.58;77.21
38225;BME280;24025;48.138;11.428;2023-03-26T18:18:07;94306.53;;;6.07;78.05
38225;BME280;24025;48.138;11.428;2023-03-26T18:20:40;94310.28;;;6.03;77.70
38225;BME280;24025;48.138;11.428;2023-03-26T18:23:21;94310.63;;;6.01;76.83
38225;BME280;24025;48.138;11.428;2023-03-26T18:25:57;94318.16;;;5.99;77.41
38225;BME280;24025;48.138;11.428;2023-03-26T18:28:43;94319.28;;;5.98;76.86
38225;BME280;24025;48.138;11.428;2023-03-26T18:31:22;94323.28;;;5.85;76.75
38225;BME280;24025;48.138;11.428;2023-03-26T18:33:56;94322.44;;;5.77;77.05
38225;BME280;24025;48.138;11.428;2023-03-26T18:36:31;94322.06;;;5.79;76.53
38225;BME280;24025;48.138;11.428;2023-03-26T18:39:03;94326.41;;;5.64;76.95
38225;BME280;24025;48.138;11.428;2023-03-26T18:41:35;94313.94;;;5.61;76.96
38225;BME280;24025;48.138;11.428;2023-03-26T18:44:15;94310.88;;;5.59;76.61
38225;BME280;24025;48.138;11.428;2023-03-26T18:46:47;94304.03;;;5.54;77.19
38225;BME280;24025;48.138;11.428;2023-03-26T18:49:19;94307.03;;;5.53;77.22
38225;BME280;24025;48.138;11.428;2023-03-26T18:51:52;94311.53;;;5.49;77.53
38225;BME280;24025;48.138;11.428;2023-03-26T18:54:32;94312.91;;;5.39;78.55
38225;BME280;24025;48.138;11.428;2023-03-26T18:57:10;94303.16;;;5.47;78.31
38225;BME280;24025;48.138;11.428;2023-03-26T18:59:50;94305.88;;;5.50;77.91
38225;BME280;24025;48.138;11.428;2023-03-26T19:02:23;94303.44;;;5.38;78.69
38225;BME280;24025;48.138;11.428;2023-03-26T19:04:56;94306.91;;;5.42;78.66
38225;BME280;24025;48.138;11.428;2023-03-26T19:07:28;94309.19;;;5.44;78.41
38225;BME280;24025;48.138;11.428;2023-03-26T19:10:00;94319.34;;;5.42;78.83
38225;BME280;24025;48.138;11.428;2023-03-26T19:12:32;94315.50;;;5.35;78.95
38225;BME280;24025;48.138;11.428;2023-03-26T19:15:10;94314.00;;;5.38;79.35
38225;BME280;24025;48.138;11.428;2023-03-26T19:17:45;94316.72;;;5.42;78.80
38225;BME280;24025;48.138;11.428;2023-03-26T19:20:25;94308.13;;;5.48;78.88
38225;BME280;24025;48.138;11.428;2023-03-26T19:22:57;94313.41;;;5.48;79.41
38225;BME280;24025;48.138;11.428;2023-03-26T19:25:41;94313.81;;;5.50;79.15
38225;BME280;24025;48.138;11.428;2023-03-26T19:28:25;94306.66;;;5.54;79.15
38225;BME280;24025;48.138;11.428;2023-03-26T19:33:57;94320.97;;;5.50;78.96
38225;BME280;24025;48.138;11.428;2023-03-26T19:36:31;94320.91;;;5.46;79.41
38225;BME280;24025;48.138;11.428;2023-03-26T19:39:11;94318.34;;;5.50;79.09
38225;BME280;24025;48.138;11.428;2023-03-26T19:41:49;94317.47;;;5.42;79.63
38225;BME280;24025;48.138;11.428;2023-03-26T19:44:26;94312.97;;;5.46;79.75